Time;durP1;ratioP1;P1;durP2;ratioP2;P2;SDS_P1;SDS_P2;PMS_P1;PMS_P2;Temp;Humidity;BMP_temperature;BMP_pressure;BME280_temperature;BME280_humidity;BME280_pressure;Samples;Min_cycle;Max_cycle;Signal;HPM_P1;HPM_P2
2023/02/09 00:02:05;;;;;;;;;;;;;;;16.14;59.73;103703.50;7400686;19;2065;-38
2023/02/09 00:04:36;;;;;;;;;;;;;;;16.66;58.29;103704.56;7402003;19;1915;-39
2023/02/09 00:07:16;;;;;;;;;;;;;;;16.61;58.22;103689.59;7400067;19;1915;-39
2023/02/09 00:09:44;;;;;;;;;;;;;;;16.14;59.43;103690.16;7401341;19;2094;-39
2023/02/09 00:14:59;;;;;;;;;;;;;;;15.65;60.50;103702.19;7402027;19;2024;-38
2023/02/09 00:17:31;;;;;;;;;;;;;;;15.78;59.86;103687.63;7402177;19;1777;-39
2023/02/09 00:20:12;;;;;;;;;;;;;;;16.28;58.93;103682.59;7401149;19;2482;-39
2023/02/09 00:22:45;;;;;;;;;;;;;;;17.07;56.48;103670.31;7401003;19;1967;-38
2023/02/09 00:25:17;;;;;;;;;;;;;;;17.08;54.88;103585.63;7401433;19;2178;-39
2023/02/09 00:27:49;;;;;;;;;;;;;;;18.01;54.01;103674.16;7399892;19;1804;-39
2023/02/09 00:30:20;;;;;;;;;;;;;;;18.22;53.63;103672.44;7401003;19;2211;-39
2023/02/09 00:32:52;;;;;;;;;;;;;;;18.27;53.45;103671.34;7401496;19;2173;-39
2023/02/09 00:35:22;;;;;;;;;;;;;;;18.28;53.13;103680.25;7401816;19;1766;-36
2023/02/09 00:37:51;;;;;;;;;;;;;;;18.22;54.01;103662.63;7401541;19;2353;-37
2023/02/09 00:40:23;;;;;;;;;;;;;;;18.33;53.42;103677.41;7400539;19;2091;-39
2023/02/09 00:42:56;;;;;;;;;;;;;;;18.36;53.51;103658.50;7400966;19;2471;-37
2023/02/09 00:45:25;;;;;;;;;;;;;;;18.39;53.77;103682.50;7401951;19;2359;-37
2023/02/09 00:47:53;;;;;;;;;;;;;;;18.40;53.45;103681.56;7411954;19;1758;-37
2023/02/09 00:50:22;;;;;;;;;;;;;;;18.47;53.00;103683.06;7414554;19;2179;-37
2023/02/09 00:52:50;;;;;;;;;;;;;;;18.46;52.97;103682.22;7414402;19;2039;-37
2023/02/09 00:55:19;;;;;;;;;;;;;;;18.57;52.91;103681.78;7413852;19;1933;-37
2023/02/09 00:57:49;;;;;;;;;;;;;;;18.54;53.30;103684.56;7413578;19;2035;-37
2023/02/09 01:00:23;;;;;;;;;;;;;;;18.65;52.71;103668.94;7415000;19;2033;-37
2023/02/09 01:02:53;;;;;;;;;;;;;;;18.63;52.52;103649.34;7413165;19;1853;-38
2023/02/09 01:05:26;;;;;;;;;;;;;;;18.66;52.70;103641.22;7414362;19;2027;-38
2023/02/09 01:07:54;;;;;;;;;;;;;;;18.72;52.65;103658.84;7413607;19;2116;-38
2023/02/09 01:10:23;;;;;;;;;;;;;;;18.61;52.68;103651.22;7412700;19;2073;-38
2023/02/09 01:12:53;;;;;;;;;;;;;;;18.53;53.07;103669.44;7414383;19;2040;-38
2023/02/09 01:15:24;;;;;;;;;;;;;;;18.24;53.71;103668.78;7414121;19;3216;-38
2023/02/09 01:17:53;;;;;;;;;;;;;;;17.87;54.18;103655.94;7414408;19;2162;-38
2023/02/09 01:20:25;;;;;;;;;;;;;;;17.67;54.62;103651.28;7413793;19;2160;-38
2023/02/09 01:23:01;;;;;;;;;;;;;;;17.50;54.85;103660.78;7413059;19;2019;-38
2023/02/09 01:25:29;;;;;;;;;;;;;;;17.38;55.01;103650.53;7412796;19;2119;-38
2023/02/09 01:28:00;;;;;;;;;;;;;;;17.40;55.00;103654.00;7413859;19;2041;-38
2023/02/09 01:30:36;;;;;;;;;;;;;;;17.48;55.30;103667.97;7412714;19;1836;-38
2023/02/09 01:33:05;;;;;;;;;;;;;;;17.36;55.06;103636.34;7413621;19;1933;-39
2023/02/09 01:35:34;;;;;;;;;;;;;;;17.34;55.44;103654.22;7414379;19;1609;-38
2023/02/09 01:38:07;;;;;;;;;;;;;;;17.36;55.26;103662.22;7414700;19;2026;-38
2023/02/09 01:40:38;;;;;;;;;;;;;;;17.35;54.92;103666.69;7412545;19;2237;-38
2023/02/09 01:43:07;;;;;;;;;;;;;;;17.30;55.25;103663.28;7412385;19;1929;-38
2023/02/09 01:45:47;;;;;;;;;;;;;;;17.30;54.98;103653.47;7413014;19;2098;-38
2023/02/09 01:48:26;;;;;;;;;;;;;;;17.27;54.82;103653.59;7412648;19;1755;-38
2023/02/09 01:50:56;;;;;;;;;;;;;;;17.22;54.95;103668.91;7412338;19;2036;-38
2023/02/09 01:53:31;;;;;;;;;;;;;;;17.19;55.51;103670.81;7413384;19;1733;-38
2023/02/09 01:56:05;;;;;;;;;;;;;;;17.24;55.27;103671.53;7412336;19;1803;-38
2023/02/09 01:58:38;;;;;;;;;;;;;;;17.23;54.89;103651.06;7407659;19;1693;-38
2023/02/09 02:01:22;;;;;;;;;;;;;;;17.22;55.16;103649.31;7407177;19;1942;-38
2023/02/09 02:03:57;;;;;;;;;;;;;;;17.25;54.74;103638.53;7407104;19;990;-38
2023/02/09 02:06:30;;;;;;;;;;;;;;;17.21;55.36;103656.47;7403533;19;1902;-38
2023/02/09 02:09:05;;;;;;;;;;;;;;;17.23;55.18;103651.94;7404828;19;2027;-38
2023/02/09 02:11:34;;;;;;;;;;;;;;;17.24;55.04;103642.13;7402678;19;2085;-38
2023/02/09 02:14:03;;;;;;;;;;;;;;;17.20;55.03;103659.19;7404802;19;1780;-38
2023/02/09 02:17:02;;;;;;;;;;;;;;;17.17;55.08;103657.50;7406261;19;1993;-38
2023/02/09 02:19:58;;;;;;;;;;;;;;;17.16;54.89;103646.88;7404751;19;2007;-38
2023/02/09 02:22:42;;;;;;;;;;;;;;;17.18;55.20;103658.38;7404297;19;2365;-38
2023/02/09 02:25:27;;;;;;;;;;;;;;;17.16;54.75;103644.19;7404734;19;2033;-38
2023/02/09 02:28:09;;;;;;;;;;;;;;;17.14;55.02;103640.69;7402804;19;1924;-38
2023/02/09 02:30:45;;;;;;;;;;;;;;;17.13;54.95;103641.59;7403286;19;2089;-38
2023/02/09 02:33:25;;;;;;;;;;;;;;;17.10;54.96;103642.59;7404433;19;1808;-38
2023/02/09 02:35:58;;;;;;;;;;;;;;;17.16;54.81;103645.06;7405286;19;1843;-38
2023/02/09 02:38:35;;;;;;;;;;;;;;;17.13;54.87;103639.84;7405064;19;2023;-38
2023/02/09 02:41:11;;;;;;;;;;;;;;;17.14;54.75;103654.94;7403778;19;1954;-38
2023/02/09 02:43:42;;;;;;;;;;;;;;;17.06;54.62;103640.97;7404567;19;1884;-38
2023/02/09 02:46:18;;;;;;;;;;;;;;;17.17;54.59;103643.25;7404016;19;2008;-38
2023/02/09 02:48:53;;;;;;;;;;;;;;;17.36;54.17;103647.03;7404053;19;2070;-38
2023/02/09 02:51:29;;;;;;;;;;;;;;;17.70;53.59;103625.25;7402343;19;1841;-38
2023/02/09 02:54:03;;;;;;;;;;;;;;;18.29;51.87;103637.31;7403834;19;2067;-38
2023/02/09 02:56:33;;;;;;;;;;;;;;;18.69;51.34;103608.03;7402884;19;2022;-38
2023/02/09 02:59:04;;;;;;;;;;;;;;;19.00;50.50;103628.19;7404199;19;1968;-38
2023/02/09 03:01:38;;;;;;;;;;;;;;;19.12;50.44;103634.84;7403422;19;1995;-38
2023/02/09 03:04:12;;;;;;;;;;;;;;;19.19;50.11;103628.28;7403908;19;2064;-38
2023/02/09 03:06:44;;;;;;;;;;;;;;;19.26;50.02;103621.72;7403163;19;2213;-38
2023/02/09 03:09:14;;;;;;;;;;;;;;;19.31;50.20;103634.94;7402546;19;2082;-38
2023/02/09 03:11:45;;;;;;;;;;;;;;;19.12;50.24;103619.66;7400202;19;1849;-38
2023/02/09 03:14:20;;;;;;;;;;;;;;;19.03;50.83;103606.63;7402550;19;2077;-38
2023/02/09 03:17:00;;;;;;;;;;;;;;;18.24;52.61;103617.91;7403433;19;2046;-39
2023/02/09 03:19:43;;;;;;;;;;;;;;;17.41;53.96;103618.31;7401039;19;2186;-38
2023/02/09 03:22:16;;;;;;;;;;;;;;;16.91;55.85;103620.97;7402656;19;1941;-38
2023/02/09 03:24:51;;;;;;;;;;;;;;;16.73;55.55;103630.44;7402296;19;2148;-39
2023/02/09 03:27:21;;;;;;;;;;;;;;;17.10;55.03;103623.88;7403169;19;1038;-38
2023/02/09 03:30:05;;;;;;;;;;;;;;;17.57;54.08;103620.44;7403462;19;1655;-38
2023/02/09 03:32:33;;;;;;;;;;;;;;;18.35;51.94;103622.81;7401489;19;1940;-38
2023/02/09 03:35:06;;;;;;;;;;;;;;;18.83;50.61;103612.84;7402605;19;2141;-38
2023/02/09 03:37:35;;;;;;;;;;;;;;;19.08;50.23;103610.00;7402561;19;2051;-38
2023/02/09 03:40:07;;;;;;;;;;;;;;;19.21;50.25;103619.22;7401679;19;1790;-38
2023/02/09 03:42:37;;;;;;;;;;;;;;;19.14;50.23;103606.16;7401272;19;2039;-39
2023/02/09 03:45:06;;;;;;;;;;;;;;;19.07;50.33;103606.41;7401677;19;1999;-38
2023/02/09 03:47:40;;;;;;;;;;;;;;;19.14;50.19;103612.41;7400905;19;1743;-38
2023/02/09 03:50:14;;;;;;;;;;;;;;;19.10;50.34;103607.22;7402593;19;1839;-38
2023/02/09 03:52:45;;;;;;;;;;;;;;;19.25;50.25;103609.25;7400530;19;1960;-38
2023/02/09 03:55:21;;;;;;;;;;;;;;;19.21;50.12;103605.81;7401793;19;2191;-38
2023/02/09 03:57:52;;;;;;;;;;;;;;;19.10;50.31;103602.75;7400639;19;2156;-38
2023/02/09 04:00:21;;;;;;;;;;;;;;;19.02;50.69;103608.44;7402372;19;2188;-38
2023/02/09 04:02:55;;;;;;;;;;;;;;;18.84;51.23;103607.44;7400891;19;2206;-38
2023/02/09 04:05:30;;;;;;;;;;;;;;;18.61;51.17;103612.84;7402030;19;1768;-38
2023/02/09 04:08:02;;;;;;;;;;;;;;;18.39;51.62;103589.59;7401033;19;2023;-38
2023/02/09 04:10:30;;;;;;;;;;;;;;;18.26;52.28;103602.63;7401397;19;1820;-38
2023/02/09 04:13:00;;;;;;;;;;;;;;;18.28;52.08;103618.63;7399268;19;2168;-38
2023/02/09 04:15:28;;;;;;;;;;;;;;;18.35;51.81;103595.16;7401979;19;2029;-39
2023/02/09 04:18:00;;;;;;;;;;;;;;;18.46;51.19;103604.50;7401755;19;1824;-38
2023/02/09 04:20:43;;;;;;;;;;;;;;;18.37;52.12;103604.00;7400480;19;2078;-38
2023/02/09 04:23:15;;;;;;;;;;;;;;;18.49;51.58;103587.44;7399781;19;2121;-38
2023/02/09 04:25:44;;;;;;;;;;;;;;;18.50;51.48;103589.16;7401554;19;2004;-38
2023/02/09 04:28:15;;;;;;;;;;;;;;;18.61;51.29;103596.75;7401132;19;2136;-38
2023/02/09 04:30:55;;;;;;;;;;;;;;;18.55;51.30;103605.94;7399924;19;1997;-38
2023/02/09 04:33:26;;;;;;;;;;;;;;;18.55;51.71;103575.59;7401374;19;1915;-38
2023/02/09 04:36:03;;;;;;;;;;;;;;;18.60;51.43;103579.81;7399821;19;2092;-38
2023/02/09 04:38:39;;;;;;;;;;;;;;;18.75;50.95;103572.94;7400900;19;2058;-38
2023/02/09 04:41:10;;;;;;;;;;;;;;;18.74;51.16;103564.94;7401057;19;1911;-38
2023/02/09 04:43:39;;;;;;;;;;;;;;;18.62;51.28;103572.59;7400609;19;2054;-38
2023/02/09 04:46:09;;;;;;;;;;;;;;;18.42;51.60;103575.19;7399660;19;2081;-38
2023/02/09 04:48:47;;;;;;;;;;;;;;;18.25;51.94;103568.72;7399888;19;2076;-38
2023/02/09 04:51:17;;;;;;;;;;;;;;;17.98;52.55;103559.13;7399265;19;1977;-38
2023/02/09 04:53:48;;;;;;;;;;;;;;;18.02;52.67;103560.75;7400229;19;1928;-38
2023/02/09 04:56:20;;;;;;;;;;;;;;;18.09;52.32;103557.75;7400039;19;2045;-38
2023/02/09 05:01:33;;;;;;;;;;;;;;;18.45;51.27;103588.50;7399977;19;1942;-38
2023/02/09 05:04:02;;;;;;;;;;;;;;;18.47;51.33;103578.56;7400105;19;2072;-38
2023/02/09 05:06:31;;;;;;;;;;;;;;;18.59;50.96;103571.84;7399482;19;2005;-38
2023/02/09 05:09:03;;;;;;;;;;;;;;;18.72;50.40;103577.53;7374212;19;12912;-38
2023/02/09 05:11:34;;;;;;;;;;;;;;;18.69;50.73;103574.06;7398043;19;1849;-39
2023/02/09 05:14:05;;;;;;;;;;;;;;;18.17;51.95;103570.84;7398142;19;1835;-38
2023/02/09 05:16:35;;;;;;;;;;;;;;;17.42;52.76;103579.06;7399514;19;1912;-38
2023/02/09 05:19:04;;;;;;;;;;;;;;;17.30;54.29;103567.00;7399818;19;1847;-38
2023/02/09 05:21:32;;;;;;;;;;;;;;;17.54;53.23;103551.84;7399429;19;1833;-38
2023/02/09 05:24:10;;;;;;;;;;;;;;;18.03;52.31;103554.47;7396653;19;2032;-39
2023/02/09 05:26:41;;;;;;;;;;;;;;;18.44;51.56;103562.63;7398881;19;1875;-38
2023/02/09 05:29:12;;;;;;;;;;;;;;;18.77;50.78;103564.81;7396900;19;2021;-38
2023/02/09 05:31:46;;;;;;;;;;;;;;;18.95;49.95;103564.06;7399692;19;1980;-38
2023/02/09 05:34:18;;;;;;;;;;;;;;;19.22;49.54;103571.84;7403557;19;1662;-38
2023/02/09 05:36:47;;;;;;;;;;;;;;;19.14;49.11;103555.19;7403173;19;2019;-38
2023/02/09 05:39:19;;;;;;;;;;;;;;;19.19;49.23;103564.78;7404830;19;1530;-38
2023/02/09 05:44:33;;;;;;;;;;;;;;;19.00;48.57;103554.00;7402147;19;1945;-38
2023/02/09 05:47:04;;;;;;;;;;;;;;;19.16;48.50;103566.72;7403480;19;2148;-38
2023/02/09 05:49:32;;;;;;;;;;;;;;;19.17;48.23;103568.47;7402410;19;1726;-39
2023/02/09 05:52:01;;;;;;;;;;;;;;;19.10;47.81;103561.63;7400665;19;2200;-38
2023/02/09 05:54:44;;;;;;;;;;;;;;;19.23;47.88;103579.78;7401990;19;1689;-38
2023/02/09 05:57:22;;;;;;;;;;;;;;;19.30;47.87;103568.78;7396821;19;2411;-38
2023/02/09 05:59:51;;;;;;;;;;;;;;;19.33;47.98;103582.94;7402076;19;2028;-38
2023/02/09 06:02:21;;;;;;;;;;;;;;;19.41;47.87;103588.81;7401028;19;2028;-38
2023/02/09 06:04:57;;;;;;;;;;;;;;;19.25;48.40;103582.41;7404156;19;1042;-38
2023/02/09 06:07:26;;;;;;;;;;;;;;;19.20;48.51;103576.38;7404004;19;2036;-38
2023/02/09 06:09:58;;;;;;;;;;;;;;;19.23;48.95;103568.19;7405413;19;2216;-38
2023/02/09 06:12:35;;;;;;;;;;;;;;;19.18;48.83;103594.34;7402119;19;1861;-39
2023/02/09 06:15:09;;;;;;;;;;;;;;;19.12;48.76;103583.88;7402041;19;1668;-38
2023/02/09 06:17:38;;;;;;;;;;;;;;;19.15;48.60;103581.09;7391736;19;2879;-38
2023/02/09 06:20:13;;;;;;;;;;;;;;;19.31;47.88;103582.13;7401353;19;1608;-38
2023/02/09 06:22:53;;;;;;;;;;;;;;;19.37;47.73;103589.03;7401723;19;1804;-39
2023/02/09 06:25:23;;;;;;;;;;;;;;;19.46;47.87;103600.22;7401931;19;1622;-39
2023/02/09 06:27:54;;;;;;;;;;;;;;;18.73;49.53;103598.06;7403127;19;1879;-38
2023/02/09 06:30:22;;;;;;;;;;;;;;;17.95;51.02;103607.47;7401496;19;1764;-38
2023/02/09 06:32:51;;;;;;;;;;;;;;;17.49;52.49;103621.59;7399831;19;2252;-39
2023/02/09 06:35:19;;;;;;;;;;;;;;;17.16;53.51;103601.41;7402283;19;2064;-39
2023/02/09 06:37:50;;;;;;;;;;;;;;;17.11;53.75;103598.91;7402892;19;2206;-38
2023/02/09 06:40:19;;;;;;;;;;;;;;;17.65;52.24;103591.59;7402880;19;1819;-38
2023/02/09 06:42:52;;;;;;;;;;;;;;;18.06;51.25;103603.44;7402034;19;1761;-38
2023/02/09 06:45:23;;;;;;;;;;;;;;;18.58;50.27;103587.06;7400127;19;1814;-38
2023/02/09 06:47:52;;;;;;;;;;;;;;;19.12;48.90;103599.97;7402640;19;1783;-38
2023/02/09 06:50:25;;;;;;;;;;;;;;;19.38;48.31;103593.47;7401655;19;2306;-39
2023/02/09 06:52:53;;;;;;;;;;;;;;;19.24;48.96;103586.91;7400961;19;1910;-38
2023/02/09 06:55:22;;;;;;;;;;;;;;;19.36;49.11;103588.19;7403468;19;1651;-39
2023/02/09 06:57:50;;;;;;;;;;;;;;;19.37;48.88;103597.09;7399367;19;1604;-39
2023/02/09 07:00:19;;;;;;;;;;;;;;;19.39;48.59;103593.38;7400236;19;1601;-39
2023/02/09 07:02:53;;;;;;;;;;;;;;;19.44;48.91;103612.84;7397912;19;1961;-39
2023/02/09 07:05:25;;;;;;;;;;;;;;;19.53;48.74;103608.00;7397372;19;1924;-39
2023/02/09 07:07:55;;;;;;;;;;;;;;;19.47;48.91;103596.59;7399620;19;2111;-39
2023/02/09 07:10:24;;;;;;;;;;;;;;;19.53;48.90;103611.56;7400766;19;2093;-39
2023/02/09 07:12:54;;;;;;;;;;;;;;;19.33;48.93;103592.81;7400484;19;2127;-39
2023/02/09 07:15:24;;;;;;;;;;;;;;;19.00;50.13;103598.69;7400955;19;2219;-39
2023/02/09 07:17:59;;;;;;;;;;;;;;;18.87;50.34;103607.28;7401036;19;1830;-39
2023/02/09 07:20:30;;;;;;;;;;;;;;;19.22;49.50;103595.97;7401774;19;1854;-41
2023/02/09 07:23:01;;;;;;;;;;;;;;;19.31;49.68;103613.47;7402273;19;1682;-39
2023/02/09 07:25:32;;;;;;;;;;;;;;;19.44;49.04;103618.22;7397954;19;1840;-39
2023/02/09 07:28:03;;;;;;;;;;;;;;;19.50;49.29;103603.66;7397065;19;1808;-39
2023/02/09 07:30:31;;;;;;;;;;;;;;;19.58;49.00;103600.63;7399630;19;1779;-39
2023/02/09 07:33:03;;;;;;;;;;;;;;;19.50;49.30;103608.13;7399630;19;1834;-39
2023/02/09 07:35:32;;;;;;;;;;;;;;;19.28;49.70;103612.66;7399312;19;1709;-39
2023/02/09 07:38:00;;;;;;;;;;;;;;;18.96;50.31;103619.44;7400185;19;1782;-39
2023/02/09 07:40:29;;;;;;;;;;;;;;;18.87;50.73;103598.38;7397947;19;2017;-39
2023/02/09 07:42:57;;;;;;;;;;;;;;;19.08;49.81;103601.94;7396515;19;1816;-39
2023/02/09 07:45:27;;;;;;;;;;;;;;;19.30;49.96;103617.06;7396067;19;1973;-39
2023/02/09 07:47:56;;;;;;;;;;;;;;;19.56;49.48;103606.06;7399481;19;1934;-39
2023/02/09 07:50:27;;;;;;;;;;;;;;;19.73;49.02;103591.00;7397524;19;1871;-39
2023/02/09 07:52:55;;;;;;;;;;;;;;;19.70;48.86;103607.25;7396747;19;1911;-39
2023/02/09 07:55:24;;;;;;;;;;;;;;;19.60;49.33;103598.75;7107734;19;5011913;-39
2023/02/09 07:57:52;;;;;;;;;;;;;;;19.35;49.74;103598.97;7395708;19;1734;-39
2023/02/09 08:00:21;;;;;;;;;;;;;;;19.12;50.16;103590.16;7400801;19;1997;-39
2023/02/09 08:02:53;;;;;;;;;;;;;;;18.90;50.83;103598.25;7398435;19;1805;-39
2023/02/09 08:05:26;;;;;;;;;;;;;;;19.05;50.93;103596.72;7400021;19;1642;-39
2023/02/09 08:07:57;;;;;;;;;;;;;;;19.46;49.52;103591.31;7399711;19;1800;-39
2023/02/09 08:10:25;;;;;;;;;;;;;;;19.69;48.92;103587.56;7398497;19;1744;-39
2023/02/09 08:13:05;;;;;;;;;;;;;;;19.91;48.83;103598.19;7399180;19;1952;-39
2023/02/09 08:15:37;;;;;;;;;;;;;;;19.96;48.53;103595.31;7401546;19;1864;-39
2023/02/09 08:18:08;;;;;;;;;;;;;;;19.80;49.29;103595.16;7399797;19;1820;-39
2023/02/09 08:20:36;;;;;;;;;;;;;;;19.42;49.92;103593.25;7396519;19;1908;-39
2023/02/09 08:23:15;;;;;;;;;;;;;;;19.30;50.17;103595.59;7399829;19;1749;-39
2023/02/09 08:25:50;;;;;;;;;;;;;;;19.11;50.90;103607.16;7396918;19;1682;-39
2023/02/09 08:28:19;;;;;;;;;;;;;;;19.13;50.71;103594.56;7398145;19;1804;-39
2023/02/09 08:30:48;;;;;;;;;;;;;;;19.45;50.02;103595.78;7398736;19;2104;-39
2023/02/09 08:33:19;;;;;;;;;;;;;;;19.82;49.46;103591.44;7398135;19;2028;-39
2023/02/09 08:35:51;;;;;;;;;;;;;;;19.93;49.43;103611.56;7397224;19;1752;-39
2023/02/09 08:38:24;;;;;;;;;;;;;;;19.79;50.20;103598.78;7396344;19;1603;-39
2023/02/09 08:40:53;;;;;;;;;;;;;;;19.46;51.13;103592.19;7398947;19;2093;-39
2023/02/09 08:43:21;;;;;;;;;;;;;;;19.35;51.14;103601.66;7398072;19;1829;-39
2023/02/09 08:48:33;;;;;;;;;;;;;;;19.10;51.67;103604.53;7395989;19;1836;-39
2023/02/09 08:51:05;;;;;;;;;;;;;;;19.43;51.34;103603.03;7398390;19;2073;-39
2023/02/09 08:53:36;;;;;;;;;;;;;;;19.55;50.81;103606.13;7396318;19;1852;-39
2023/02/09 08:56:05;;;;;;;;;;;;;;;19.74;50.69;103593.63;7398712;19;1620;-39
2023/02/09 08:58:33;;;;;;;;;;;;;;;19.64;50.80;103597.66;7397715;19;1953;-39
2023/02/09 09:01:02;;;;;;;;;;;;;;;19.44;51.34;103587.84;7397855;19;1870;-39
2023/02/09 09:03:31;;;;;;;;;;;;;;;19.32;51.43;103589.25;7397016;19;1730;-39
2023/02/09 09:06:01;;;;;;;;;;;;;;;19.22;52.10;103593.31;7398504;19;1831;-39
2023/02/09 09:08:30;;;;;;;;;;;;;;;19.46;51.41;103596.69;7404159;19;1271;-39
2023/02/09 09:11:02;;;;;;;;;;;;;;;19.65;51.16;103572.53;7404812;19;2099;-39
2023/02/09 09:13:33;;;;;;;;;;;;;;;19.89;50.67;103601.91;7403651;19;1893;-39
2023/02/09 09:16:05;;;;;;;;;;;;;;;19.82;50.84;103598.66;7406029;19;1745;-39
2023/02/09 09:18:36;;;;;;;;;;;;;;;19.66;51.49;103598.47;7405345;19;1643;-39
2023/02/09 09:21:04;;;;;;;;;;;;;;;19.56;51.63;103597.16;7405748;19;1689;-39
2023/02/09 09:23:38;;;;;;;;;;;;;;;19.33;52.21;103595.50;7404720;19;1714;-39
2023/02/09 09:26:13;;;;;;;;;;;;;;;19.42;52.33;103590.59;7401865;19;1982;-39
2023/02/09 09:28:41;;;;;;;;;;;;;;;19.60;51.95;103604.13;7400102;19;1624;-39
2023/02/09 09:31:13;;;;;;;;;;;;;;;19.90;52.16;103611.72;7403954;19;1844;-39
2023/02/09 09:33:44;;;;;;;;;;;;;;;20.10;51.93;103598.19;7400549;19;1848;-39
2023/02/09 09:36:13;;;;;;;;;;;;;;;19.96;52.48;103579.19;7405479;19;1840;-39
2023/02/09 09:38:42;;;;;;;;;;;;;;;19.91;52.79;103586.59;7403863;19;1686;-39
2023/02/09 09:41:22;;;;;;;;;;;;;;;19.77;52.83;103595.28;7400224;19;1669;-39
2023/02/09 09:43:53;;;;;;;;;;;;;;;19.67;53.21;103593.00;7400926;19;1822;-39
2023/02/09 09:46:23;;;;;;;;;;;;;;;19.68;53.06;103584.00;7404012;19;1750;-39
2023/02/09 09:48:53;;;;;;;;;;;;;;;19.64;53.48;103578.88;7402417;19;1733;-39
2023/02/09 09:51:27;;;;;;;;;;;;;;;19.59;53.16;103591.63;7403746;19;1939;-39
2023/02/09 09:54:02;;;;;;;;;;;;;;;19.59;53.42;103560.25;7402230;19;1838;-39
2023/02/09 09:56:37;;;;;;;;;;;;;;;19.57;53.40;103567.53;7405235;19;1964;-39
2023/02/09 09:59:15;;;;;;;;;;;;;;;19.46;53.62;103570.72;7403932;19;1613;-39
2023/02/09 10:01:47;;;;;;;;;;;;;;;19.35;53.69;103550.69;7399942;19;1790;-39
2023/02/09 10:04:28;;;;;;;;;;;;;;;19.47;52.68;103566.22;7400663;19;1652;-39
2023/02/09 10:07:02;;;;;;;;;;;;;;;19.40;50.68;103556.72;7403331;19;1859;-39
2023/02/09 10:09:36;;;;;;;;;;;;;;;19.59;49.77;103549.53;7399717;19;1761;-39
2023/02/09 10:12:17;;;;;;;;;;;;;;;19.65;49.56;103553.75;7403632;19;1630;-39
2023/02/09 10:14:46;;;;;;;;;;;;;;;19.60;49.73;103562.03;7400055;19;1864;-39
2023/02/09 10:17:17;;;;;;;;;;;;;;;19.49;49.76;103548.22;7401078;19;1653;-39
2023/02/09 10:20:01;;;;;;;;;;;;;;;19.46;49.74;103559.97;7401492;19;1565;-39
2023/02/09 10:22:37;;;;;;;;;;;;;;;19.36;49.92;103553.28;7398973;19;1464;-39
2023/02/09 10:25:08;;;;;;;;;;;;;;;19.18;50.82;103543.38;7402095;19;1905;-39
2023/02/09 10:27:48;;;;;;;;;;;;;;;19.31;50.44;103544.56;7402057;19;2171;-39
2023/02/09 10:30:23;;;;;;;;;;;;;;;19.70;50.17;103534.75;7401583;19;2041;-39
2023/02/09 10:32:56;;;;;;;;;;;;;;;19.95;49.74;103535.31;7399964;19;2210;-39
2023/02/09 10:35:43;;;;;;;;;;;;;;;20.00;49.94;103537.81;7399342;19;1818;-39
2023/02/09 10:38:20;;;;;;;;;;;;;;;19.90;49.79;103547.25;7401413;19;2170;-39
2023/02/09 10:40:49;;;;;;;;;;;;;;;19.81;50.57;103498.41;7401025;19;1771;-39
2023/02/09 10:43:32;;;;;;;;;;;;;;;19.60;51.13;103508.34;7400590;19;1735;-39
2023/02/09 10:46:03;;;;;;;;;;;;;;;19.61;50.83;103501.16;7400969;19;1657;-39
2023/02/09 10:48:42;;;;;;;;;;;;;;;19.62;51.08;103519.00;7402040;19;1770;-39
2023/02/09 10:51:15;;;;;;;;;;;;;;;19.67;51.39;103519.66;7400853;19;1903;-39
2023/02/09 10:53:59;;;;;;;;;;;;;;;19.68;51.62;103510.66;7398441;19;1869;-39
2023/02/09 10:56:30;;;;;;;;;;;;;;;19.63;51.72;103513.53;7400479;19;2097;-39
2023/02/09 10:59:18;;;;;;;;;;;;;;;19.56;51.55;103512.13;7400984;19;1802;-39
2023/02/09 11:02:05;;;;;;;;;;;;;;;19.59;52.02;103508.41;7398140;19;1587;-38
2023/02/09 11:04:39;;;;;;;;;;;;;;;19.68;52.10;103511.53;7401802;19;1769;-39
2023/02/09 11:07:10;;;;;;;;;;;;;;;19.75;52.18;103500.53;7400567;19;1768;-39
2023/02/09 11:09:44;;;;;;;;;;;;;;;19.17;50.26;103494.22;7400129;19;1790;-39
2023/02/09 11:12:19;;;;;;;;;;;;;;;17.97;50.02;103509.22;7400154;19;1689;-39
2023/02/09 11:14:56;;;;;;;;;;;;;;;17.35;51.52;103514.22;7397717;19;1852;-38
2023/02/09 11:17:28;;;;;;;;;;;;;;;16.96;49.54;103493.38;7400612;19;2116;-39
2023/02/09 11:20:19;;;;;;;;;;;;;;;16.87;47.94;103501.72;7400673;19;1755;-38
2023/02/09 11:23:22;;;;;;;;;;;;;;;16.81;47.24;103494.81;7397555;19;1759;-39
2023/02/09 11:26:00;;;;;;;;;;;;;;;16.50;46.10;103497.63;7397852;19;2266;-39
2023/02/09 11:28:36;;;;;;;;;;;;;;;16.33;46.83;103481.31;7400226;19;1980;-39
2023/02/09 11:31:17;;;;;;;;;;;;;;;16.30;45.71;103482.28;7399918;19;1896;-39
2023/02/09 11:33:53;;;;;;;;;;;;;;;16.00;45.37;103486.84;7399531;19;1852;-39
2023/02/09 11:36:27;;;;;;;;;;;;;;;15.88;44.88;103474.75;7397614;19;1749;-39
2023/02/09 11:38:58;;;;;;;;;;;;;;;15.75;43.11;103479.59;7399492;19;1833;-39
2023/02/09 11:44:17;;;;;;;;;;;;;;;15.67;43.34;103465.59;7399750;19;1872;-39
2023/02/09 11:46:52;;;;;;;;;;;;;;;15.59;43.28;103473.81;7395969;19;1835;-39
2023/02/09 11:49:31;;;;;;;;;;;;;;;15.67;43.85;103449.59;7399146;19;1492;-38
2023/02/09 11:52:00;;;;;;;;;;;;;;;15.71;42.41;103462.78;7399110;19;1685;-38
2023/02/09 11:54:31;;;;;;;;;;;;;;;15.49;42.08;103470.56;7397261;19;1857;-38
2023/02/09 11:57:08;;;;;;;;;;;;;;;15.58;42.06;103445.41;7398472;19;1725;-38
2023/02/09 11:59:43;;;;;;;;;;;;;;;15.55;41.23;103465.97;7397157;19;1719;-39
2023/02/09 12:02:22;;;;;;;;;;;;;;;16.29;44.88;103470.75;7396896;19;2648;-38
2023/02/09 12:05:18;;;;;;;;;;;;;;;16.83;44.75;103447.53;7396886;19;1879;-38
2023/02/09 12:08:02;;;;;;;;;;;;;;;17.10;45.38;103458.97;7397188;19;1976;-38
2023/02/09 12:10:50;;;;;;;;;;;;;;;17.20;46.97;103445.28;7396758;19;1828;-39
2023/02/09 12:13:30;;;;;;;;;;;;;;;17.29;46.57;103443.13;7398158;19;1822;-38
2023/02/09 12:16:01;;;;;;;;;;;;;;;17.40;47.62;103450.72;7397231;19;1715;-38
2023/02/09 12:18:36;;;;;;;;;;;;;;;17.49;47.47;103438.81;7396142;19;2268;-38
2023/02/09 12:21:09;;;;;;;;;;;;;;;17.47;47.96;103449.56;7396791;19;1863;-44
2023/02/09 12:23:42;;;;;;;;;;;;;;;17.41;48.87;103424.88;7392053;19;2198;-39
2023/02/09 12:26:25;;;;;;;;;;;;;;;17.47;48.89;103433.50;7392392;19;1703;-41
2023/02/09 12:29:24;;;;;;;;;;;;;;;17.34;49.78;103434.91;7393144;19;2107;-39
2023/02/09 12:32:09;;;;;;;;;;;;;;;17.21;50.76;103439.88;7397207;19;1765;-39
2023/02/09 12:37:43;;;;;;;;;;;;;;;17.06;51.53;103427.94;7396289;19;1849;-39
2023/02/09 12:40:26;;;;;;;;;;;;;;;17.04;51.72;103432.47;7397165;19;2157;-39
2023/02/09 12:43:12;;;;;;;;;;;;;;;17.02;51.97;103447.69;7396046;19;1919;-39
2023/02/09 12:45:55;;;;;;;;;;;;;;;17.06;52.06;103430.59;7396856;19;1760;-39
2023/02/09 12:48:27;;;;;;;;;;;;;;;16.99;52.33;103437.13;7396952;19;1910;-39
2023/02/09 12:51:30;;;;;;;;;;;;;;;16.96;52.54;103431.03;7395674;19;1697;-38
2023/02/09 12:54:33;;;;;;;;;;;;;;;16.97;52.54;103435.44;7396554;19;1847;-39
2023/02/09 12:57:17;;;;;;;;;;;;;;;16.82;52.92;103421.72;7397490;19;1910;-39
2023/02/09 13:00:07;;;;;;;;;;;;;;;16.76;53.10;103434.41;7396218;19;1928;-39
2023/02/09 13:02:41;;;;;;;;;;;;;;;16.73;52.47;103431.81;7395415;19;2198;-39
2023/02/09 13:05:36;;;;;;;;;;;;;;;16.57;52.80;103416.34;7390074;19;1622;-39
2023/02/09 13:08:23;;;;;;;;;;;;;;;16.59;52.27;103419.84;7399020;19;1769;-39
2023/02/09 13:10:58;;;;;;;;;;;;;;;16.72;53.13;103424.75;7397998;19;1781;-38
2023/02/09 13:13:43;;;;;;;;;;;;;;;16.82;53.75;103420.84;7398180;19;1833;-38
2023/02/09 13:16:29;;;;;;;;;;;;;;;16.94;53.16;103440.91;6881638;19;9999657;-39
2023/02/09 13:19:31;;;;;;;;;;;;;;;17.15;52.42;103424.06;7388289;19;1864;-39
2023/02/09 13:22:31;;;;;;;;;;;;;;;17.92;50.82;103431.72;7392461;19;1890;-39
2023/02/09 13:25:14;;;;;;;;;;;;;;;18.77;48.88;103412.88;7393210;19;1621;-39
2023/02/09 13:27:54;;;;;;;;;;;;;;;19.10;47.62;103422.16;7391748;19;2533;-38
2023/02/09 13:30:36;;;;;;;;;;;;;;;19.32;47.68;103404.13;7392956;19;1639;-39
2023/02/09 13:33:13;;;;;;;;;;;;;;;19.29;47.75;103401.56;7393072;19;1803;-38
2023/02/09 13:36:03;;;;;;;;;;;;;;;19.34;47.38;103410.28;7391536;19;1926;-39
2023/02/09 13:41:46;;;;;;;;;;;;;;;;;;;;;
2023/02/09 13:44:59;;;;;;;;;;;;;;;18.99;48.41;103407.44;7389873;19;1846;-39